Time;durP1;ratioP1;P1;durP2;ratioP2;P2;SDS_P1;SDS_P2;PMS_P1;PMS_P2;Temp;Humidity;BMP_temperature;BMP_pressure;BME280_temperature;BME280_humidity;BME280_pressure;Samples;Min_cycle;Max_cycle;Signal;HPM_P1;HPM_P2
2022/08/17 00:01:25;;;;;;;26.55;23.35;;;;;;;21.83;65.94;100782.00;5224922;28;20026;-83
2022/08/17 00:03:57;;;;;;;25.65;23.08;;;;;;;21.96;65.82;100780.34;5224746;28;20083;-83
2022/08/17 00:06:30;;;;;;;26.20;23.35;;;;;;;21.80;66.28;100780.41;5224545;28;20030;-83
2022/08/17 00:09:04;;;;;;;27.42;24.85;;;;;;;21.83;66.90;100774.06;5224929;28;20030;-84
2022/08/17 00:11:39;;;;;;;27.60;25.05;;;;;;;21.65;67.48;100773.38;5224507;28;20058;-84
2022/08/17 00:14:14;;;;;;;27.73;23.90;;;;;;;21.96;66.78;100764.44;5224259;28;20113;-84
2022/08/17 00:16:48;;;;;;;26.08;23.33;;;;;;;21.98;67.08;100762.53;5225117;28;20041;-83
2022/08/17 00:19:22;;;;;;;27.92;24.73;;;;;;;21.67;67.66;100759.06;5222717;28;20036;-82
2022/08/17 00:21:56;;;;;;;28.25;25.15;;;;;;;21.70;67.78;100758.03;5228574;28;20026;-83
2022/08/17 00:24:28;;;;;;;29.05;26.27;;;;;;;21.58;68.18;100743.69;5245495;28;20093;-84
2022/08/17 00:26:59;;;;;;;26.73;24.23;;;;;;;21.75;68.23;100733.88;5242438;28;20033;-83
2022/08/17 00:29:30;;;;;;;27.57;24.30;;;;;;;21.57;68.63;100741.97;5217138;28;20292;-82
2022/08/17 00:32:02;;;;;;;26.33;23.90;;;;;;;21.67;68.71;100748.47;5231647;28;20085;-83
2022/08/17 00:34:34;;;;;;;28.15;25.20;;;;;;;21.72;68.75;100734.06;5229071;28;20030;-83
2022/08/17 00:37:05;;;;;;;29.37;26.53;;;;;;;21.89;68.58;100746.31;5226600;28;20379;-83
2022/08/17 00:39:37;;;;;;;27.47;24.77;;;;;;;21.84;68.67;100733.31;5224664;28;20530;-84
2022/08/17 00:42:14;;;;;;;29.55;26.70;;;;;;;21.70;69.23;100739.44;5225034;28;20368;-83
2022/08/17 00:44:46;;;;;;;28.88;26.08;;;;;;;21.73;68.50;100731.31;5224444;28;20042;-83
2022/08/17 00:47:17;;;;;;;30.53;27.60;;;;;;;21.85;68.96;100738.53;5224048;28;20036;-83
2022/08/17 00:49:49;;;;;;;31.13;28.23;;;;;;;21.86;68.79;100739.38;5223903;28;20033;-83
2022/08/17 00:52:27;;;;;;;32.53;29.30;;;;;;;21.66;69.61;100732.63;5224275;28;20030;-84
2022/08/17 00:55:00;;;;;;;30.30;27.60;;;;;;;21.84;69.16;100734.16;5224586;28;20098;-84
2022/08/17 00:57:37;;;;;;;;;;;;;;;21.98;66.73;100740.44;5224183;28;20044;-83
2022/08/17 01:00:25;;;;;;;31.55;28.65;;;;;;;21.85;69.05;100735.03;5224337;28;19914;-83
2022/08/17 01:03:01;;;;;;;33.20;29.98;;;;;;;21.87;69.04;100735.78;5223714;28;20026;-83
2022/08/17 01:05:34;;;;;;;33.28;30.05;;;;;;;21.83;69.97;100731.59;5223853;28;20493;-83
2022/08/17 01:08:12;;;;;;;34.17;30.92;;;;;;;21.88;69.40;100736.63;5206083;28;20045;-85
2022/08/17 01:10:48;;;;;;;34.00;31.00;;;;;;;21.90;69.47;100727.63;5224114;28;20065;-84
2022/08/17 01:13:21;;;;;;;32.25;29.23;;;;;;;21.80;70.08;100735.31;5224084;28;20040;-84
2022/08/17 01:16:00;;;;;;;33.40;30.35;;;;;;;21.70;70.12;100728.00;5223797;28;20105;-84
2022/08/17 01:18:33;;;;;;;32.90;29.40;;;;;;;21.77;70.39;100726.69;5223524;28;20058;-82
2022/08/17 01:21:44;;;;;;;32.08;29.17;;;;;;;21.78;69.96;100716.00;5223548;28;20037;-83
2022/08/17 01:24:16;;;;;;;31.17;28.25;;;;;;;21.58;70.68;100716.34;5223712;28;20037;-83
2022/08/17 01:26:48;;;;;;;30.30;27.65;;;;;;;21.53;70.84;100718.41;5223161;28;20030;-83
2022/08/17 01:29:21;;;;;;;32.10;29.10;;;;;;;21.42;71.40;100711.91;5224186;28;20026;-83
2022/08/17 01:31:57;;;;;;;31.02;28.33;;;;;;;21.55;71.19;100708.56;5224811;28;20113;-83
2022/08/17 01:34:29;;;;;;;32.00;29.00;;;;;;;21.60;71.40;100704.66;5223340;28;20120;-83
2022/08/17 01:37:00;;;;;;;33.95;30.83;;;;;;;21.40;71.14;100705.84;5223303;28;20030;-84
2022/08/17 01:39:41;;;;;;;33.10;29.73;;;;;;;21.55;71.17;100701.44;5223051;28;20048;-82
2022/08/17 01:42:21;;;;;;;34.17;30.98;;;;;;;21.30;72.08;100702.88;5223351;28;20269;-82
2022/08/17 01:44:56;;;;;;;31.80;29.10;;;;;;;21.46;71.54;100701.97;5222813;28;20046;-82
2022/08/17 01:47:28;;;;;;;31.60;28.25;;;;;;;21.38;71.90;100704.22;5223283;28;20030;-83
2022/08/17 01:50:06;;;;;;;31.40;28.50;;;;;;;21.11;72.69;100700.47;5222848;28;20049;-83
2022/08/17 01:52:38;;;;;;;33.63;29.95;;;;;;;21.12;72.96;100704.81;5222168;28;20045;-83
2022/08/17 01:55:11;;;;;;;30.10;27.40;;;;;;;21.10;72.83;100701.38;5222759;28;20474;-83
2022/08/17 01:57:44;;;;;;;32.70;29.63;;;;;;;21.02;73.52;100702.78;5222497;28;20061;-83
2022/08/17 02:00:17;;;;;;;30.83;27.92;;;;;;;21.00;73.57;100694.09;5222186;28;20088;-83
2022/08/17 02:02:48;;;;;;;32.05;29.17;;;;;;;20.87;73.67;100694.78;5221936;28;20046;-82
2022/08/17 02:05:20;;;;;;;32.50;29.30;;;;;;;20.94;73.60;100696.13;5222416;28;20080;-84
2022/08/17 02:07:51;;;;;;;32.97;29.60;;;;;;;20.87;73.80;100694.78;5222471;28;20033;-85
2022/08/17 02:10:23;;;;;;;31.55;28.77;;;;;;;21.06;73.45;100694.56;5204828;28;20364;-85
2022/08/17 02:12:55;;;;;;;30.40;27.80;;;;;;;20.79;74.58;100691.72;5222499;28;20037;-85
2022/08/17 02:15:27;;;;;;;30.88;28.02;;;;;;;20.92;74.22;100691.88;5223084;28;20030;-83
2022/08/17 02:18:00;;;;;;;30.38;27.75;;;;;;;20.73;74.84;100684.97;5203757;28;20471;-83
2022/08/17 02:20:32;;;;;;;31.90;28.73;;;;;;;20.79;74.97;100686.41;5222016;28;20137;-82
2022/08/17 02:23:07;;;;;;;31.70;28.70;;;;;;;20.80;74.78;100690.78;5221774;28;20494;-82
2022/08/17 02:25:42;;;;;;;32.47;29.20;;;;;;;20.77;74.73;100696.25;5221695;28;20125;-82
2022/08/17 02:28:15;;;;;;;31.45;28.67;;;;;;;20.70;75.12;100693.06;5221508;28;20390;-82
2022/08/17 02:30:46;;;;;;;31.10;28.42;;;;;;;20.84;75.25;100694.94;5204152;28;20034;-82
2022/08/17 02:33:18;;;;;;;32.37;29.60;;;;;;;20.72;75.28;100695.63;5222562;28;20471;-83
2022/08/17 02:35:49;;;;;;;33.20;29.97;;;;;;;20.79;75.10;100690.88;5222272;28;20525;-83
2022/08/17 02:38:21;;;;;;;32.73;29.70;;;;;;;20.84;74.89;100681.72;5204213;28;20667;-82
2022/08/17 02:40:52;;;;;;;33.67;30.80;;;;;;;20.63;75.31;100683.75;5203677;28;20034;-83
2022/08/17 02:43:26;;;;;;;37.20;33.70;;;;;;;20.51;76.07;100676.50;5221482;28;20437;-83
2022/08/17 02:45:57;;;;;;;37.33;33.42;;;;;;;20.53;75.95;100675.47;5221817;28;20038;-82
2022/08/17 02:48:29;;;;;;;37.33;34.07;;;;;;;20.37;76.55;100675.47;5222355;28;20085;-83
2022/08/17 02:51:01;;;;;;;39.10;35.50;;;;;;;20.34;76.99;100673.00;5205129;28;20072;-82
2022/08/17 02:53:32;;;;;;;38.93;35.60;;;;;;;20.30;76.89;100682.06;5221572;28;20069;-82
2022/08/17 02:56:03;;;;;;;39.63;36.07;;;;;;;20.45;76.83;100679.47;5221392;28;20084;-82
2022/08/17 02:58:35;;;;;;;38.63;35.07;;;;;;;20.45;76.84;100671.53;5222323;28;20040;-82
2022/08/17 03:01:08;;;;;;;38.40;34.63;;;;;;;20.49;76.85;100671.28;5222113;28;20474;-82
2022/08/17 03:03:40;;;;;;;37.58;34.25;;;;;;;20.53;76.77;100672.00;5222208;28;20463;-82
2022/08/17 03:06:11;;;;;;;40.53;36.50;;;;;;;20.55;76.35;100673.59;5221556;28;20036;-82
2022/08/17 03:08:43;;;;;;;39.23;35.83;;;;;;;20.59;76.38;100668.97;5221278;28;20080;-81
2022/08/17 03:11:14;;;;;;;39.30;35.87;;;;;;;20.48;76.63;100663.41;5221790;28;20044;-82
2022/08/17 03:13:46;;;;;;;38.53;34.95;;;;;;;20.44;76.84;100653.97;5221076;28;20026;-82
2022/08/17 03:16:18;;;;;;;37.55;34.30;;;;;;;20.29;77.50;100653.03;5221126;28;20054;-83
2022/08/17 03:18:49;;;;;;;38.03;34.63;;;;;;;20.43;77.17;100658.41;5202951;28;20034;-82
2022/08/17 03:21:20;;;;;;;38.43;34.83;;;;;;;20.25;77.38;100664.72;5221032;28;20410;-82
2022/08/17 03:23:52;;;;;;;40.50;36.87;;;;;;;20.23;77.51;100663.00;5221011;28;20129;-82
2022/08/17 03:26:23;;;;;;;36.33;33.20;;;;;;;20.37;77.16;100661.41;5221032;28;20436;-82
2022/08/17 03:28:54;;;;;;;37.50;34.30;;;;;;;20.32;77.14;100659.00;5203091;28;20125;-82
2022/08/17 03:31:26;;;;;;;38.23;34.87;;;;;;;20.21;78.07;100664.03;5220617;28;20030;-82
2022/08/17 03:33:59;;;;;;;36.47;33.37;;;;;;;20.27;78.03;100666.34;5202879;28;20100;-82
2022/08/17 03:36:31;;;;;;;38.53;34.88;;;;;;;20.03;78.36;100666.75;5220913;28;20038;-82
2022/08/17 03:39:03;;;;;;;39.53;36.03;;;;;;;20.08;78.00;100665.66;5221103;28;20050;-83
2022/08/17 03:41:35;;;;;;;39.50;35.90;;;;;;;20.08;78.73;100670.94;5220284;28;20030;-82
2022/08/17 03:44:06;;;;;;;37.70;34.42;;;;;;;19.97;78.94;100666.22;5220252;28;20062;-82
2022/08/17 03:57:57;;;;;;;38.67;35.05;;;;;;;20.07;79.39;100671.88;5220572;28;20483;-84
2022/08/17 04:00:29;;;;;;;39.25;35.40;;;;;;;20.15;79.14;100685.53;5220311;28;20030;-83
2022/08/17 04:03:01;;;;;;;36.43;33.03;;;;;;;20.25;78.89;100678.78;5220868;28;20038;-83
2022/08/17 04:05:32;;;;;;;39.25;35.38;;;;;;;20.08;79.32;100689.47;5220046;28;20352;-83
2022/08/17 04:08:04;;;;;;;39.47;36.07;;;;;;;20.03;79.25;100690.56;5220525;28;20497;-83
2022/08/17 04:10:36;;;;;;;40.58;36.83;;;;;;;19.93;80.05;100705.22;5202761;28;20395;-83
2022/08/17 04:13:09;;;;;;;41.58;37.40;;;;;;;19.83;80.69;100718.06;5220531;28;20443;-83
2022/08/17 04:15:40;;;;;;;38.45;34.72;;;;;;;19.85;80.84;100725.91;5220048;28;20033;-82
2022/08/17 04:18:11;;;;;;;38.67;34.73;;;;;;;19.85;81.40;100729.44;5220204;28;20061;-82
2022/08/17 04:20:43;;;;;;;40.37;36.80;;;;;;;19.82;82.16;100741.97;5220383;28;20037;-82
2022/08/17 04:23:17;;;;;;;39.63;36.15;;;;;;;19.80;82.73;100726.19;5220950;28;20034;-82
2022/08/17 04:25:49;;;;;;;41.97;38.28;;;;;;;19.86;82.92;100725.00;5219846;28;20033;-83
2022/08/17 04:28:21;;;;;;;40.35;36.25;;;;;;;19.85;83.28;100728.56;5202412;28;20176;-78
2022/08/17 04:30:52;;;;;;;41.50;37.83;;;;;;;19.81;83.41;100729.69;5220066;28;20113;-82
2022/08/17 04:33:26;;;;;;;39.33;35.97;;;;;;;19.81;83.52;100735.81;5202393;28;20030;-81
2022/08/17 04:36:00;;;;;;;41.38;37.45;;;;;;;19.81;84.01;100745.53;5219906;28;20026;-81
2022/08/17 04:38:35;;;;;;;41.13;37.55;;;;;;;19.79;84.46;100761.50;5219651;28;20391;-81
2022/08/17 04:43:58;;;;;;;41.97;37.15;;;;;;;19.82;84.74;100773.72;5223903;28;20129;-81
2022/08/17 04:46:33;;;;;;;39.83;36.13;;;;;;;19.97;84.40;100770.25;5206665;28;20030;-82
2022/08/17 04:49:08;;;;;;;41.33;37.63;;;;;;;19.88;85.03;100767.25;5223264;28;20174;-82
2022/08/17 04:51:43;;;;;;;39.58;35.88;;;;;;;19.88;84.50;100768.09;5223475;28;20034;-81
2022/08/17 04:54:17;;;;;;;40.65;36.88;;;;;;;19.86;85.02;100776.09;5223399;28;20116;-81
2022/08/17 04:56:48;;;;;;;37.80;34.03;;;;;;;19.93;85.05;100760.78;5223790;28;20041;-81
2022/08/17 04:59:21;;;;;;;36.67;33.60;;;;;;;20.07;84.43;100777.72;5223670;28;20129;-81
2022/08/17 05:01:53;;;;;;;37.58;34.03;;;;;;;20.05;84.33;100751.34;5223731;28;20324;-81
2022/08/17 05:04:25;;;;;;;37.17;33.78;;;;;;;20.00;84.74;100748.94;5189661;28;20040;-81
2022/08/17 05:06:57;;;;;;;36.00;32.83;;;;;;;19.99;84.32;100756.94;5222854;28;20034;-82
2022/08/17 05:09:28;;;;;;;37.17;33.75;;;;;;;20.04;84.54;100754.91;5223402;28;20042;-81
2022/08/17 05:12:01;;;;;;;36.83;32.97;;;;;;;20.01;85.08;100753.31;5224453;28;20038;-82
2022/08/17 05:14:32;;;;;;;37.05;33.58;;;;;;;19.99;84.99;100747.22;5223379;28;20026;-81
2022/08/17 05:17:04;;;;;;;35.73;32.57;;;;;;;20.14;84.85;100752.63;5223006;28;20490;-80
2022/08/17 05:19:35;;;;;;;34.87;31.73;;;;;;;20.19;85.31;100754.09;5223444;28;20104;-80
2022/08/17 05:22:07;;;;;;;37.10;33.73;;;;;;;20.19;84.86;100763.84;5222987;28;20041;-80
2022/08/17 05:24:38;;;;;;;36.45;33.03;;;;;;;20.18;84.82;100762.97;5205778;28;20034;-81
2022/08/17 05:27:09;;;;;;;36.27;33.17;;;;;;;20.17;85.13;100757.75;5222934;28;20030;-81
2022/08/17 05:29:41;;;;;;;35.80;32.53;;;;;;;20.22;85.38;100755.72;5222723;28;20037;-81
2022/08/17 05:32:13;;;;;;;36.77;33.47;;;;;;;20.40;85.12;100751.25;5205235;28;20118;-81
2022/08/17 05:34:44;;;;;;;34.80;31.65;;;;;;;20.36;84.71;100745.25;5222556;28;20486;-80
2022/08/17 05:37:15;;;;;;;37.77;34.20;;;;;;;20.39;84.72;100739.78;5222466;28;20387;-81
2022/08/17 05:39:47;;;;;;;36.37;32.47;;;;;;;20.38;84.28;100748.69;5222289;28;20117;-81
2022/08/17 05:42:18;;;;;;;34.27;30.97;;;;;;;20.48;84.48;100745.50;5222797;28;20088;-80
2022/08/17 05:44:50;;;;;;;35.05;31.95;;;;;;;20.45;84.63;100746.53;5222203;28;20049;-81
2022/08/17 05:47:24;;;;;;;34.65;31.55;;;;;;;20.56;84.70;100753.91;5223658;28;20100;-81
2022/08/17 05:49:58;;;;;;;36.30;32.83;;;;;;;20.53;84.04;100748.78;5222636;28;20062;-80
2022/08/17 05:52:38;;;;;;;32.58;29.52;;;;;;;20.71;84.54;100752.22;5222490;28;20042;-81
2022/08/17 05:55:30;;;;;;;34.83;31.63;;;;;;;20.78;83.46;100753.56;5222685;28;20526;-81
2022/08/17 05:58:26;;;;;;;33.15;29.95;;;;;;;20.82;83.07;100755.13;5224070;28;20026;-82
2022/08/17 06:01:04;;;;;;;32.17;29.30;;;;;;;20.83;83.28;100763.91;5225646;28;20479;-82
2022/08/17 06:03:53;;;;;;;29.80;27.20;;;;;;;20.82;82.66;100759.56;5223350;28;20460;-82
2022/08/17 06:06:43;;;;;;;30.98;28.38;;;;;;;20.92;83.48;100758.97;5226792;28;20029;-81
2022/08/17 06:09:36;;;;;;;28.92;26.38;;;;;;;21.11;82.73;100764.06;5226823;28;20467;-81
2022/08/17 06:12:32;;;;;;;26.88;24.25;;;;;;;20.97;80.48;100760.50;5234152;28;20145;-82
2022/08/17 06:15:28;;;;;;;26.77;24.42;;;;;;;20.99;80.58;100761.25;5229693;28;20053;-83
2022/08/17 06:18:04;;;;;;;25.92;23.65;;;;;;;20.91;80.58;100765.22;5228372;28;20034;-82
2022/08/17 06:20:51;;;;;;;25.67;23.38;;;;;;;21.02;81.64;100769.03;5224885;28;20033;-81
2022/08/17 06:23:36;;;;;;;25.35;22.85;;;;;;;20.94;80.69;100775.63;5223499;28;20523;-82
2022/08/17 06:26:14;;;;;;;24.58;22.25;;;;;;;20.97;80.71;100787.00;5222264;28;20061;-81
2022/08/17 06:28:57;;;;;;;23.80;21.55;;;;;;;21.02;81.15;100784.94;5221993;28;20049;-81
2022/08/17 06:31:35;;;;;;;24.30;21.45;;;;;;;20.93;81.32;100786.34;5222844;28;20112;-82
2022/08/17 06:34:10;;;;;;;24.42;22.13;;;;;;;20.93;82.08;100788.97;5222013;28;20383;-82
2022/08/17 06:37:07;;;;;;;23.40;21.20;;;;;;;20.92;80.83;100797.84;5222054;28;20099;-82
2022/08/17 06:39:57;;;;;;;22.17;19.90;;;;;;;20.85;81.39;100793.81;5222449;28;20351;-82
2022/08/17 06:42:39;;;;;;;22.70;20.33;;;;;;;20.80;80.89;100793.22;5222315;28;20048;-82
2022/08/17 06:45:18;;;;;;;22.88;20.77;;;;;;;20.83;82.75;100788.59;5222087;28;20467;-81
2022/08/17 06:48:23;;;;;;;21.38;19.55;;;;;;;20.87;81.33;100797.25;5221499;28;20084;-82
2022/08/17 06:50:59;;;;;;;21.75;19.77;;;;;;;20.76;80.83;100803.16;5222157;28;20022;-82
2022/08/17 06:53:45;;;;;;;22.13;19.83;;;;;;;20.71;81.15;100802.56;5221850;28;20065;-83
2022/08/17 06:56:35;;;;;;;21.25;19.10;;;;;;;20.64;82.36;100811.75;5221824;28;20038;-82
2022/08/17 06:59:13;;;;;;;21.50;19.50;;;;;;;20.70;81.44;100814.91;5222036;28;20092;-82
2022/08/17 07:01:47;;;;;;;21.52;19.50;;;;;;;20.70;81.38;100814.06;5222242;28;20475;-82
2022/08/17 07:04:23;;;;;;;19.92;18.05;;;;;;;20.72;81.37;100812.19;5221474;28;20467;-82
2022/08/17 07:08:00;;;;;;;21.10;19.02;;;;;;;20.79;81.03;100821.53;5221748;28;20045;-82
2022/08/17 07:09:59;;;;;;;20.23;18.33;;;;;;;20.87;80.99;100818.47;5221363;28;20038;-82
2022/08/17 07:12:38;;;;;;;20.38;18.50;;;;;;;20.93;80.58;100818.13;5221657;28;20038;-82
2022/08/17 07:15:18;;;;;;;19.52;17.75;;;;;;;20.96;80.39;100820.56;5204395;28;20026;-82
2022/08/17 07:17:51;;;;;;;20.85;18.75;;;;;;;21.00;80.07;100822.13;5221795;28;20447;-82
2022/08/17 07:20:22;;;;;;;19.17;17.38;;;;;;;21.12;80.85;100820.56;5222305;28;20038;-82
2022/08/17 07:23:16;;;;;;;19.93;18.30;;;;;;;21.15;80.00;100825.69;5203555;28;20091;-82
2022/08/17 07:25:48;;;;;;;19.85;18.05;;;;;;;21.13;80.11;100820.50;5221287;28;20030;-81
2022/08/17 07:28:22;;;;;;;18.23;16.50;;;;;;;21.07;79.62;100828.78;5220962;28;20171;-82
2022/08/17 07:30:53;;;;;;;20.52;18.27;;;;;;;21.09;80.51;100828.69;5221088;28;20069;-82
2022/08/17 07:33:28;;;;;;;21.17;19.10;;;;;;;21.08;80.40;100827.84;5203354;28;20125;-82
2022/08/17 07:36:00;;;;;;;20.05;18.30;;;;;;;21.01;79.72;100825.63;5221153;28;20359;-82
2022/08/17 07:38:34;;;;;;;19.07;17.37;;;;;;;20.98;79.70;100834.63;5221206;28;20172;-83
2022/08/17 07:41:09;;;;;;;20.27;18.35;;;;;;;21.07;80.25;100838.53;5221051;28;20030;-82
2022/08/17 07:43:40;;;;;;;19.60;17.60;;;;;;;21.17;80.36;100849.47;5221152;28;20046;-82
2022/08/17 07:49:31;;;;;;;;;;;;;;;21.36;78.06;100855.44;5239401;28;20038;-82
2022/08/17 07:52:07;;;;;;;19.23;17.50;;;;;;;21.24;78.78;100851.69;5229570;28;20402;-82
2022/08/17 07:54:40;;;;;;;19.40;17.42;;;;;;;21.39;78.43;100857.06;5203824;28;20474;-81
2022/08/17 07:57:12;;;;;;;20.15;18.00;;;;;;;21.33;78.09;100850.31;5203257;28;20045;-82
2022/08/17 07:59:58;;;;;;;18.97;17.10;;;;;;;21.52;78.50;100849.31;5220881;28;20034;-82
2022/08/17 08:02:39;;;;;;;20.33;18.23;;;;;;;21.57;78.29;100850.72;5220860;28;20033;-81
2022/08/17 08:05:20;;;;;;;19.33;17.48;;;;;;;21.72;78.93;100849.00;5220675;28;20038;-82
2022/08/17 08:08:23;;;;;;;28.33;17.92;;;;;;;21.84;76.50;100853.56;5202919;28;20022;-82
2022/08/17 08:11:01;;;;;;;17.98;16.33;;;;;;;21.92;77.99;100849.63;5220247;28;20046;-82
2022/08/17 08:13:34;;;;;;;18.65;16.95;;;;;;;21.82;76.50;100846.66;5220855;28;20455;-82
2022/08/17 08:16:23;;;;;;;20.30;18.30;;;;;;;21.83;76.57;100857.19;5223331;28;20034;-82
2022/08/17 08:18:57;;;;;;;19.58;17.88;;;;;;;21.89;77.79;100852.47;5224690;28;20030;-81
2022/08/17 08:21:32;;;;;;;19.13;17.45;;;;;;;21.93;76.00;100848.66;5224604;28;20041;-83
2022/08/17 08:24:32;;;;;;;19.50;17.58;;;;;;;22.02;75.84;100858.72;5225205;28;20057;-83
2022/08/17 08:27:26;;;;;;;19.25;17.52;;;;;;;22.02;75.80;100843.69;5210027;28;20044;-82
2022/08/17 08:30:13;;;;;;;20.92;18.50;;;;;;;22.09;76.25;100835.31;5225032;28;20116;-82
2022/08/17 08:33:03;;;;;;;19.80;18.00;;;;;;;22.15;75.55;100833.19;5224436;28;20378;-83
2022/08/17 08:35:57;;;;;;;20.02;18.00;;;;;;;22.14;75.30;100833.28;5224455;28;20105;-83
2022/08/17 08:38:37;;;;;;;20.88;19.08;;;;;;;22.03;75.53;100832.09;5224426;28;20037;-83
2022/08/17 08:41:29;;;;;;;21.85;19.85;;;;;;;22.01;75.26;100839.31;5225244;28;20124;-84
2022/08/17 08:44:07;;;;;;;23.02;19.92;;;;;;;22.08;75.36;100845.09;5229774;28;20052;-84
2022/08/17 08:46:50;;;;;;;22.20;20.00;;;;;;;22.15;75.96;100857.06;5228467;28;20084;-83
2022/08/17 08:49:30;;;;;;;23.45;21.27;;;;;;;22.19;75.85;100871.84;5207566;28;20356;-83
2022/08/17 08:52:07;;;;;;;22.65;20.65;;;;;;;22.22;74.32;100881.44;5224322;28;20034;-84
2022/08/17 08:54:58;;;;;;;22.20;20.10;;;;;;;22.40;74.97;100882.16;5207184;28;20034;-83
2022/08/17 08:57:35;;;;;;;22.52;20.45;;;;;;;22.47;76.11;100878.16;5224617;28;20375;-83
2022/08/17 09:00:16;;;;;;;21.50;19.48;;;;;;;22.55;74.27;100865.25;5223700;28;20455;-84
2022/08/17 09:03:01;;;;;;;20.98;19.20;;;;;;;22.57;74.14;100860.72;5224163;28;20029;-82
2022/08/17 09:06:05;;;;;;;23.10;21.02;;;;;;;22.62;73.37;100870.19;5224229;28;20068;-82
2022/08/17 09:09:08;;;;;;;22.23;20.23;;;;;;;22.70;73.49;100867.91;5204377;28;20041;-83
2022/08/17 09:11:49;;;;;;;23.25;20.92;;;;;;;22.44;75.48;100869.53;5224155;28;20566;-84
2022/08/17 09:14:30;;;;;;;22.52;20.25;;;;;;;22.43;74.73;100868.69;5223964;28;20463;-83
2022/08/17 09:17:12;;;;;;;22.95;20.83;;;;;;;22.38;74.69;100876.09;5223943;28;20104;-83
2022/08/17 09:20:34;;;;;;;24.23;21.80;;;;;;;22.36;73.77;100875.31;5224435;28;20037;-84
2022/08/17 09:23:18;;;;;;;24.27;22.13;;;;;;;22.13;75.23;100872.22;5211275;28;20038;-83
2022/08/17 09:26:08;;;;;;;24.38;21.98;;;;;;;22.14;75.48;100886.38;5224182;28;20116;-83
2022/08/17 09:28:47;;;;;;;23.15;20.75;;;;;;;22.20;74.85;100891.28;5223773;28;20041;-84
2022/08/17 09:31:34;;;;;;;24.35;22.08;;;;;;;22.12;75.51;100888.25;5225027;28;20422;-83
2022/08/17 09:34:14;;;;;;;24.15;21.90;;;;;;;22.08;75.06;100903.50;5223607;28;20037;-83
2022/08/17 09:37:17;;;;;;;22.42;20.05;;;;;;;22.20;76.58;100920.50;5223438;28;20095;-80
2022/08/17 09:40:10;;;;;;;23.33;21.00;;;;;;;22.18;77.28;100923.22;5189249;28;20067;-83
2022/08/17 09:42:58;;;;;;;23.35;21.05;;;;;;;22.09;76.81;100941.50;5228510;28;20025;-82
2022/08/17 09:45:45;;;;;;;23.42;20.10;;;;;;;21.97;78.41;100948.41;5224488;28;20463;-83
2022/08/17 09:48:44;;;;;;;22.00;19.80;;;;;;;21.86;78.24;100959.63;5223417;28;20443;-83
2022/08/17 09:51:33;;;;;;;24.25;20.55;;;;;;;21.71;79.92;100973.78;5223115;28;20030;-82
2022/08/17 09:54:25;;;;;;;26.13;22.08;;;;;;;21.53;80.63;100973.03;5223033;28;20050;-82
2022/08/17 09:57:22;;;;;;;25.27;22.52;;;;;;;21.62;82.48;100967.19;5224161;28;20030;-83
2022/08/17 10:03:24;;;;;;;24.48;22.20;;;;;;;21.19;82.90;100945.66;5223588;28;20034;-83
2022/08/17 10:06:14;;;;;;;24.75;22.30;;;;;;;21.21;85.41;100944.66;5223243;28;20531;-83
2022/08/17 10:08:57;;;;;;;27.20;24.60;;;;;;;21.16;89.17;100943.22;5222862;28;20379;-83
2022/08/17 10:14:30;;;;;;;27.17;24.75;;;;;;;21.02;87.02;100950.09;5222498;28;20033;-83
2022/08/17 10:17:11;;;;;;;27.98;25.35;;;;;;;20.97;87.95;100941.53;5222642;28;20037;-83
2022/08/17 10:20:15;;;;;;;28.75;26.20;;;;;;;20.99;89.32;100941.47;5204755;28;20025;-82
2022/08/17 10:26:22;;;;;;;26.25;23.88;;;;;;;21.00;90.79;100944.03;5222923;28;20037;-82
2022/08/17 10:28:59;;;;;;;28.75;26.02;;;;;;;21.01;92.75;100955.47;5204561;28;20095;-82
2022/08/17 10:31:43;;;;;;;31.33;28.30;;;;;;;21.07;93.68;100948.03;5222191;28;20041;-81
2022/08/17 10:34:17;;;;;;;29.75;26.88;;;;;;;21.05;93.55;100947.28;5222157;28;20041;-82
2022/08/17 10:37:14;;;;;;;31.00;27.75;;;;;;;21.13;93.70;100937.13;5222463;28;20057;-82
2022/08/17 10:40:13;;;;;;;29.80;26.88;;;;;;;21.06;94.24;100933.09;5222466;28;20451;-83
2022/08/17 10:42:53;;;;;;;30.45;27.75;;;;;;;21.06;93.64;100932.25;5222555;28;20374;-83
2022/08/17 10:45:45;;;;;;;29.23;26.67;;;;;;;21.10;94.57;100920.53;5223057;28;20056;-82
2022/08/17 10:48:28;;;;;;;29.77;27.02;;;;;;;21.16;94.04;100911.41;5222529;28;20040;-82
2022/08/17 10:51:07;;;;;;;30.20;27.40;;;;;;;21.00;93.69;100909.56;5222313;28;20120;-82
2022/08/17 10:53:49;;;;;;;31.70;28.75;;;;;;;20.94;94.14;100900.16;5205363;28;20040;-82
2022/08/17 10:56:22;;;;;;;30.47;27.93;;;;;;;20.79;93.30;100892.22;5222644;28;20057;-82
2022/08/17 10:58:59;;;;;;;30.30;27.25;;;;;;;20.70;93.50;100889.09;5223068;28;20387;-83
2022/08/17 11:01:30;;;;;;;30.25;27.52;;;;;;;20.70;94.16;100883.78;5222580;28;20018;-84
2022/08/17 11:04:17;;;;;;;31.63;28.67;;;;;;;20.86;95.08;100896.22;5205549;28;20344;-83
2022/08/17 11:07:01;;;;;;;30.50;27.58;;;;;;;20.65;92.96;100896.44;5224238;28;20466;-83
2022/08/17 11:09:53;;;;;;;32.70;29.55;;;;;;;20.65;94.82;100892.94;5224282;28;20030;-84
2022/08/17 11:12:53;;;;;;;31.27;28.58;;;;;;;20.69;95.42;100900.63;5222804;28;20034;-84
2022/08/17 11:15:36;;;;;;;29.65;27.13;;;;;;;20.64;94.87;100900.03;5207131;28;20103;-83
2022/08/17 11:18:30;;;;;;;30.80;28.02;;;;;;;20.56;93.86;100907.50;5224417;28;20038;-83
2022/08/17 11:21:29;;;;;;;30.08;27.38;;;;;;;20.52;95.00;100917.38;5204731;28;20076;-83
2022/08/17 11:24:34;;;;;;;30.17;27.48;;;;;;;20.67;95.01;100914.91;5223850;28;20061;-83
2022/08/17 11:27:20;;;;;;;30.08;27.27;;;;;;;20.57;95.42;100928.56;5222418;28;20034;-82
2022/08/17 11:29:58;;;;;;;37.00;29.55;;;;;;;20.64;96.30;100939.75;5223419;28;20096;-82
2022/08/17 11:32:51;;;;;;;28.40;25.90;;;;;;;20.47;93.67;100940.59;5223163;28;20192;-82
2022/08/17 11:35:23;;;;;;;30.30;27.48;;;;;;;20.59;93.86;100960.28;5223848;28;20048;-83
2022/08/17 11:38:09;;;;;;;28.88;26.35;;;;;;;20.65;94.42;100957.34;5225118;28;20037;-82
2022/08/17 11:40:56;;;;;;;29.98;27.27;;;;;;;20.69;95.11;100958.91;5228239;28;20382;-82
2022/08/17 11:43:48;;;;;;;29.02;26.50;;;;;;;20.66;93.82;100963.53;5238347;28;20053;-82
2022/08/17 11:52:58;;;;;;;27.75;25.35;;;;;;;21.07;96.41;100963.09;5236841;28;20038;-82
2022/08/17 11:55:36;;;;;;;30.63;27.47;;;;;;;21.19;96.29;100966.88;5231699;28;20108;-81
2022/08/17 11:58:29;;;;;;;29.77;27.17;;;;;;;21.15;94.64;100974.16;5232413;28;20053;-82
2022/08/17 12:01:12;;;;;;;29.40;26.90;;;;;;;20.94;93.68;100982.31;5232048;28;20041;-82
2022/08/17 12:03:44;;;;;;;30.38;27.67;;;;;;;20.88;93.28;100993.25;5234943;28;20061;-83
2022/08/17 12:06:31;;;;;;;30.08;27.40;;;;;;;21.02;95.08;101000.44;5238281;28;20398;-82
2022/08/17 12:09:05;;;;;;;30.15;27.25;;;;;;;20.87;94.09;100996.81;5218974;28;20033;-82
2022/08/17 12:11:43;;;;;;;31.27;28.42;;;;;;;20.91;94.84;100995.75;5237639;28;20034;-81
2022/08/17 12:14:25;;;;;;;32.22;29.35;;;;;;;20.97;95.19;100999.84;5234724;28;20061;-80
2022/08/17 12:17:03;;;;;;;33.03;29.90;;;;;;;21.14;98.63;101001.59;5235470;28;20057;-81
2022/08/17 12:19:37;;;;;;;30.27;27.70;;;;;;;21.20;98.47;100998.59;5234150;28;20088;-83
2022/08/17 12:22:14;;;;;;;31.55;28.70;;;;;;;21.16;97.05;101002.38;5233819;28;20033;-80
2022/08/17 12:25:03;;;;;;;30.73;27.92;;;;;;;21.26;97.03;101002.72;5234582;28;20026;-83
2022/08/17 12:27:42;;;;;;;30.42;27.65;;;;;;;21.31;96.07;100998.03;5216869;28;20093;-83
2022/08/17 12:30:18;;;;;;;30.52;27.90;;;;;;;21.10;93.57;100998.25;5234310;28;20053;-82
2022/08/17 12:32:50;;;;;;;33.15;30.35;;;;;;;21.25;96.68;100993.94;5231695;28;20026;-81
2022/08/17 12:35:37;;;;;;;32.58;29.92;;;;;;;21.23;96.80;100992.28;5232607;28;20026;-83